Aviation Digital Data Service (ADDS)

Output produced by METARs form (2155 UTC 19 February 2018)
found at http://www.aviationweather.gov/adds/metars/
 
HTDA 192000Z 08004KT 9999 FEW017 27/25 Q1010 NOSIG
TAF HTDA 191700Z 1918/2024 08010KT 9999 FEW017 
     TEMPO 2000/2003 00000KT TSRA BKN016 FEW017CB 
     BECMG 2011/2014 05010KT
       
HTDO 191700Z 1918/2018 10010KT 9999 FEW026
       
HTKJ 192000Z 09015KT 9999 FEW028 26/17 Q1013 NOSIG
TAF HTKJ 191700Z 1918/2018 09010KT 9999 SCT033 
     TEMPO 2002/2006 00000KT 
     BECMG 2012/2016 FEW035CB SCT036
       
HTMW 192000Z 00000KT 9999 FEW021 SCT240 20/18 Q1014 NOSIG
HTMW 191700Z 1918/2018 00000KT 9999 FEW022 FEW023CB 
     TEMPO 2003/2009 09010KT TSRA SCT020 FEW021CB SCT090 
     BECMG 2012/2015 30010KT FEW025 FEW026CB
       
HTZA 192000Z 00000KT 9999 FEW018 27/24 Q1010 NOSIG
HTZA 191700Z 1918/2018 00000KT 9999 FEW018 
     BECMG 2004/2006 34010KT BKN018 
     BECMG 2009/2011 08010KT SCT022